Redington Beach, Florida
Current Conditions -  °F | °C
As of 8:53 AM on Sunday 23 Nov 2014 (Local Time) from KPIE Reporting Station
Few Clouds Few Clouds  
Wind Chill: 76°   Ceiling: Unl
Heat Index: 76°   Visibility: 10mi
Dew Point: 71°   Wind: 17mph
Humidity: 85%   Direction: 150°SSE
Pressure: 29.99"   Gusts: NA
Location:  27.8164°N, 82.7802°W
Report Text: KPIE 231353Z 15015KT 10SM FEW013 24/22 A2999 RMK AO2 SLP154 T02440217
Loading
Personal Weather Stations






























Interactive Weather Map New forecast layout! Learn more

10-Day Weather Forecast

Advertisements
Track Severe Weather on mobile